sensor_id;sensor_type;location;lat;lon;timestamp;P1;durP1;ratioP1;P2;durP2;ratioP2
10469;SDS011;5282;47.052;15.458;2022-12-18T00:02:24;21.33;;;15.83;;
10469;SDS011;5282;47.052;15.458;2022-12-18T00:04:54;20.93;;;15.73;;
10469;SDS011;5282;47.052;15.458;2022-12-18T00:07:21;20.60;;;15.37;;
10469;SDS011;5282;47.052;15.458;2022-12-18T00:09:48;19.97;;;15.20;;
10469;SDS011;5282;47.052;15.458;2022-12-18T00:12:15;21.60;;;16.30;;
10469;SDS011;5282;47.052;15.458;2022-12-18T00:14:43;21.43;;;15.60;;
10469;SDS011;5282;47.052;15.458;2022-12-18T00:17:10;24.23;;;16.37;;
10469;SDS011;5282;47.052;15.458;2022-12-18T00:19:37;21.67;;;15.93;;
10469;SDS011;5282;47.052;15.458;2022-12-18T00:22:06;19.67;;;14.87;;
10469;SDS011;5282;47.052;15.458;2022-12-18T00:24:33;21.47;;;15.27;;
10469;SDS011;5282;47.052;15.458;2022-12-18T00:26:59;21.93;;;16.47;;
10469;SDS011;5282;47.052;15.458;2022-12-18T00:29:26;21.73;;;14.93;;
10469;SDS011;5282;47.052;15.458;2022-12-18T00:31:53;20.87;;;15.77;;
10469;SDS011;5282;47.052;15.458;2022-12-18T00:34:20;23.30;;;15.87;;
10469;SDS011;5282;47.052;15.458;2022-12-18T00:36:47;21.27;;;15.47;;
10469;SDS011;5282;47.052;15.458;2022-12-18T00:39:16;23.47;;;15.23;;
10469;SDS011;5282;47.052;15.458;2022-12-18T00:41:43;19.13;;;14.63;;
10469;SDS011;5282;47.052;15.458;2022-12-18T00:44:27;19.70;;;14.33;;
10469;SDS011;5282;47.052;15.458;2022-12-18T00:46:54;19.53;;;14.77;;
10469;SDS011;5282;47.052;15.458;2022-12-18T00:49:22;22.23;;;15.30;;
10469;SDS011;5282;47.052;15.458;2022-12-18T00:51:49;21.47;;;15.70;;
10469;SDS011;5282;47.052;15.458;2022-12-18T00:54:17;19.27;;;14.17;;
10469;SDS011;5282;47.052;15.458;2022-12-18T00:56:44;19.43;;;14.60;;
10469;SDS011;5282;47.052;15.458;2022-12-18T00:59:11;20.97;;;14.60;;
10469;SDS011;5282;47.052;15.458;2022-12-18T01:01:38;18.70;;;13.80;;
10469;SDS011;5282;47.052;15.458;2022-12-18T01:04:05;22.40;;;15.13;;
10469;SDS011;5282;47.052;15.458;2022-12-18T01:06:32;18.93;;;13.90;;
10469;SDS011;5282;47.052;15.458;2022-12-18T01:08:59;18.00;;;14.27;;
10469;SDS011;5282;47.052;15.458;2022-12-18T01:11:27;19.10;;;13.73;;
10469;SDS011;5282;47.052;15.458;2022-12-18T01:13:56;20.97;;;14.97;;
10469;SDS011;5282;47.052;15.458;2022-12-18T01:16:23;17.27;;;13.13;;
10469;SDS011;5282;47.052;15.458;2022-12-18T01:18:51;16.00;;;13.23;;
10469;SDS011;5282;47.052;15.458;2022-12-18T01:21:18;17.43;;;13.10;;
10469;SDS011;5282;47.052;15.458;2022-12-18T01:23:45;17.30;;;12.73;;
10469;SDS011;5282;47.052;15.458;2022-12-18T01:26:13;15.13;;;12.27;;
10469;SDS011;5282;47.052;15.458;2022-12-18T01:28:43;18.77;;;12.40;;
10469;SDS011;5282;47.052;15.458;2022-12-18T01:31:14;16.90;;;12.80;;
10469;SDS011;5282;47.052;15.458;2022-12-18T01:33:44;15.70;;;12.40;;
10469;SDS011;5282;47.052;15.458;2022-12-18T01:36:15;16.17;;;13.13;;
10469;SDS011;5282;47.052;15.458;2022-12-18T01:38:43;15.67;;;12.70;;
10469;SDS011;5282;47.052;15.458;2022-12-18T01:41:10;16.63;;;12.47;;
10469;SDS011;5282;47.052;15.458;2022-12-18T01:43:46;15.10;;;12.13;;
10469;SDS011;5282;47.052;15.458;2022-12-18T01:46:18;20.27;;;13.97;;
10469;SDS011;5282;47.052;15.458;2022-12-18T01:48:47;16.07;;;12.93;;
10469;SDS011;5282;47.052;15.458;2022-12-18T01:51:16;17.00;;;12.53;;
10469;SDS011;5282;47.052;15.458;2022-12-18T01:53:43;18.77;;;13.63;;
10469;SDS011;5282;47.052;15.458;2022-12-18T01:56:12;17.80;;;13.67;;
10469;SDS011;5282;47.052;15.458;2022-12-18T01:58:44;19.20;;;13.33;;
10469;SDS011;5282;47.052;15.458;2022-12-18T02:01:19;15.70;;;13.13;;
10469;SDS011;5282;47.052;15.458;2022-12-18T02:03:51;17.17;;;12.90;;
10469;SDS011;5282;47.052;15.458;2022-12-18T02:06:19;18.93;;;12.90;;
10469;SDS011;5282;47.052;15.458;2022-12-18T02:08:57;15.53;;;12.87;;
10469;SDS011;5282;47.052;15.458;2022-12-18T02:11:32;18.20;;;12.33;;
10469;SDS011;5282;47.052;15.458;2022-12-18T02:14:10;17.97;;;11.87;;
10469;SDS011;5282;47.052;15.458;2022-12-18T02:16:45;15.70;;;12.13;;
10469;SDS011;5282;47.052;15.458;2022-12-18T02:19:22;17.40;;;13.33;;
10469;SDS011;5282;47.052;15.458;2022-12-18T02:22:06;15.70;;;12.10;;
10469;SDS011;5282;47.052;15.458;2022-12-18T02:24:50;19.37;;;13.73;;
10469;SDS011;5282;47.052;15.458;2022-12-18T02:27:27;16.07;;;13.00;;
10469;SDS011;5282;47.052;15.458;2022-12-18T02:29:58;16.40;;;13.33;;
10469;SDS011;5282;47.052;15.458;2022-12-18T02:32:28;18.17;;;13.87;;
10469;SDS011;5282;47.052;15.458;2022-12-18T02:34:59;18.43;;;13.80;;
10469;SDS011;5282;47.052;15.458;2022-12-18T02:37:28;19.47;;;13.67;;
10469;SDS011;5282;47.052;15.458;2022-12-18T02:39:57;15.87;;;13.07;;
10469;SDS011;5282;47.052;15.458;2022-12-18T02:42:25;16.47;;;12.43;;
10469;SDS011;5282;47.052;15.458;2022-12-18T02:44:54;20.00;;;13.33;;
10469;SDS011;5282;47.052;15.458;2022-12-18T02:47:22;18.17;;;13.83;;
10469;SDS011;5282;47.052;15.458;2022-12-18T02:49:53;18.63;;;13.17;;
10469;SDS011;5282;47.052;15.458;2022-12-18T02:52:30;17.23;;;13.30;;
10469;SDS011;5282;47.052;15.458;2022-12-18T02:55:06;15.17;;;12.93;;
10469;SDS011;5282;47.052;15.458;2022-12-18T02:57:44;19.07;;;13.17;;
10469;SDS011;5282;47.052;15.458;2022-12-18T03:00:16;16.97;;;12.30;;
10469;SDS011;5282;47.052;15.458;2022-12-18T03:02:48;19.90;;;13.40;;
10469;SDS011;5282;47.052;15.458;2022-12-18T03:05:22;16.43;;;12.70;;
10469;SDS011;5282;47.052;15.458;2022-12-18T03:07:55;16.27;;;12.77;;
10469;SDS011;5282;47.052;15.458;2022-12-18T03:10:26;18.30;;;13.63;;
10469;SDS011;5282;47.052;15.458;2022-12-18T03:12:58;18.93;;;13.03;;
10469;SDS011;5282;47.052;15.458;2022-12-18T03:15:29;19.50;;;13.23;;
10469;SDS011;5282;47.052;15.458;2022-12-18T03:18:02;18.10;;;12.97;;
10469;SDS011;5282;47.052;15.458;2022-12-18T03:20:35;18.93;;;13.20;;
10469;SDS011;5282;47.052;15.458;2022-12-18T03:23:07;18.83;;;12.83;;
10469;SDS011;5282;47.052;15.458;2022-12-18T03:25:39;16.73;;;12.53;;
10469;SDS011;5282;47.052;15.458;2022-12-18T03:28:12;17.53;;;12.50;;
10469;SDS011;5282;47.052;15.458;2022-12-18T03:30:41;17.60;;;12.63;;
10469;SDS011;5282;47.052;15.458;2022-12-18T03:33:11;17.00;;;12.53;;
10469;SDS011;5282;47.052;15.458;2022-12-18T03:35:45;16.27;;;12.63;;
10469;SDS011;5282;47.052;15.458;2022-12-18T03:38:15;17.67;;;12.80;;
10469;SDS011;5282;47.052;15.458;2022-12-18T03:40:50;15.73;;;12.30;;
10469;SDS011;5282;47.052;15.458;2022-12-18T03:43:30;18.03;;;12.33;;
10469;SDS011;5282;47.052;15.458;2022-12-18T03:46:06;17.43;;;12.20;;
10469;SDS011;5282;47.052;15.458;2022-12-18T03:48:39;14.90;;;11.80;;
10469;SDS011;5282;47.052;15.458;2022-12-18T03:51:11;15.23;;;12.13;;
10469;SDS011;5282;47.052;15.458;2022-12-18T03:53:46;16.77;;;12.70;;
10469;SDS011;5282;47.052;15.458;2022-12-18T03:56:18;15.57;;;12.27;;
10469;SDS011;5282;47.052;15.458;2022-12-18T03:58:49;15.37;;;11.83;;
10469;SDS011;5282;47.052;15.458;2022-12-18T04:01:19;13.00;;;10.43;;
10469;SDS011;5282;47.052;15.458;2022-12-18T04:03:49;13.67;;;10.70;;
10469;SDS011;5282;47.052;15.458;2022-12-18T04:06:18;14.33;;;10.90;;
10469;SDS011;5282;47.052;15.458;2022-12-18T04:08:45;12.90;;;11.00;;
10469;SDS011;5282;47.052;15.458;2022-12-18T04:11:13;14.90;;;10.47;;
10469;SDS011;5282;47.052;15.458;2022-12-18T04:13:41;12.43;;;11.10;;
10469;SDS011;5282;47.052;15.458;2022-12-18T04:16:10;12.23;;;10.53;;
10469;SDS011;5282;47.052;15.458;2022-12-18T04:18:37;13.47;;;10.97;;
10469;SDS011;5282;47.052;15.458;2022-12-18T04:21:04;14.70;;;11.00;;
10469;SDS011;5282;47.052;15.458;2022-12-18T04:23:31;13.27;;;10.17;;
10469;SDS011;5282;47.052;15.458;2022-12-18T04:25:58;11.77;;;10.43;;
10469;SDS011;5282;47.052;15.458;2022-12-18T04:28:25;13.50;;;11.00;;
10469;SDS011;5282;47.052;15.458;2022-12-18T04:30:51;12.53;;;10.93;;
10469;SDS011;5282;47.052;15.458;2022-12-18T04:33:20;15.97;;;11.67;;
10469;SDS011;5282;47.052;15.458;2022-12-18T04:35:47;13.73;;;10.37;;
10469;SDS011;5282;47.052;15.458;2022-12-18T04:38:14;13.47;;;10.83;;
10469;SDS011;5282;47.052;15.458;2022-12-18T04:40:40;13.27;;;10.73;;
10469;SDS011;5282;47.052;15.458;2022-12-18T04:43:07;13.23;;;10.87;;
10469;SDS011;5282;47.052;15.458;2022-12-18T04:45:34;15.37;;;12.23;;
10469;SDS011;5282;47.052;15.458;2022-12-18T04:48:02;14.10;;;11.43;;
10469;SDS011;5282;47.052;15.458;2022-12-18T04:50:31;16.70;;;12.07;;
10469;SDS011;5282;47.052;15.458;2022-12-18T04:52:58;14.60;;;11.30;;
10469;SDS011;5282;47.052;15.458;2022-12-18T04:55:25;12.70;;;10.47;;
10469;SDS011;5282;47.052;15.458;2022-12-18T04:57:53;17.03;;;12.07;;
10469;SDS011;5282;47.052;15.458;2022-12-18T05:00:20;14.60;;;11.97;;
10469;SDS011;5282;47.052;15.458;2022-12-18T05:02:48;15.73;;;11.60;;
10469;SDS011;5282;47.052;15.458;2022-12-18T05:05:15;15.03;;;11.33;;
10469;SDS011;5282;47.052;15.458;2022-12-18T05:07:43;18.20;;;12.97;;
10469;SDS011;5282;47.052;15.458;2022-12-18T05:10:10;16.73;;;12.13;;
10469;SDS011;5282;47.052;15.458;2022-12-18T05:12:37;20.73;;;13.67;;
10469;SDS011;5282;47.052;15.458;2022-12-18T05:15:23;20.07;;;13.23;;
10469;SDS011;5282;47.052;15.458;2022-12-18T05:17:50;20.27;;;13.07;;
10469;SDS011;5282;47.052;15.458;2022-12-18T05:20:17;20.93;;;14.13;;
10469;SDS011;5282;47.052;15.458;2022-12-18T05:22:46;20.30;;;13.57;;
10469;SDS011;5282;47.052;15.458;2022-12-18T05:25:13;24.43;;;15.43;;
10469;SDS011;5282;47.052;15.458;2022-12-18T05:27:40;21.73;;;15.17;;
10469;SDS011;5282;47.052;15.458;2022-12-18T05:30:08;22.47;;;14.83;;
10469;SDS011;5282;47.052;15.458;2022-12-18T05:32:35;24.57;;;15.30;;
10469;SDS011;5282;47.052;15.458;2022-12-18T05:35:02;26.20;;;16.17;;
10469;SDS011;5282;47.052;15.458;2022-12-18T05:37:30;33.17;;;20.30;;
10469;SDS011;5282;47.052;15.458;2022-12-18T05:39:58;45.40;;;23.33;;
10469;SDS011;5282;47.052;15.458;2022-12-18T05:42:26;38.67;;;21.20;;
10469;SDS011;5282;47.052;15.458;2022-12-18T05:44:52;30.30;;;17.27;;
10469;SDS011;5282;47.052;15.458;2022-12-18T05:47:19;27.90;;;15.30;;
10469;SDS011;5282;47.052;15.458;2022-12-18T05:49:46;31.03;;;15.70;;
10469;SDS011;5282;47.052;15.458;2022-12-18T05:52:13;32.60;;;15.90;;
10469;SDS011;5282;47.052;15.458;2022-12-18T05:54:40;23.33;;;14.93;;
10469;SDS011;5282;47.052;15.458;2022-12-18T05:57:08;26.47;;;14.03;;
10469;SDS011;5282;47.052;15.458;2022-12-18T05:59:35;35.43;;;15.47;;
10469;SDS011;5282;47.052;15.458;2022-12-18T06:02:02;25.00;;;14.90;;
10469;SDS011;5282;47.052;15.458;2022-12-18T06:04:29;24.03;;;14.80;;
10469;SDS011;5282;47.052;15.458;2022-12-18T06:06:56;22.47;;;14.70;;
10469;SDS011;5282;47.052;15.458;2022-12-18T06:09:23;22.43;;;14.10;;
10469;SDS011;5282;47.052;15.458;2022-12-18T06:11:51;23.13;;;15.13;;
10469;SDS011;5282;47.052;15.458;2022-12-18T06:14:20;20.50;;;13.93;;
10469;SDS011;5282;47.052;15.458;2022-12-18T06:16:46;24.77;;;15.17;;
10469;SDS011;5282;47.052;15.458;2022-12-18T06:19:14;24.27;;;15.03;;
10469;SDS011;5282;47.052;15.458;2022-12-18T06:21:42;23.67;;;15.33;;
10469;SDS011;5282;47.052;15.458;2022-12-18T06:24:09;23.00;;;15.03;;
10469;SDS011;5282;47.052;15.458;2022-12-18T06:26:36;20.37;;;13.63;;
10469;SDS011;5282;47.052;15.458;2022-12-18T06:29:04;23.07;;;14.87;;
10469;SDS011;5282;47.052;15.458;2022-12-18T06:31:32;19.03;;;13.90;;
10469;SDS011;5282;47.052;15.458;2022-12-18T06:34:01;21.20;;;14.57;;
10469;SDS011;5282;47.052;15.458;2022-12-18T06:36:29;22.47;;;13.93;;
10469;SDS011;5282;47.052;15.458;2022-12-18T06:38:56;25.07;;;16.50;;
10469;SDS011;5282;47.052;15.458;2022-12-18T06:41:23;25.20;;;16.27;;
10469;SDS011;5282;47.052;15.458;2022-12-18T06:43:50;28.50;;;18.20;;
10469;SDS011;5282;47.052;15.458;2022-12-18T06:46:17;25.27;;;17.90;;
10469;SDS011;5282;47.052;15.458;2022-12-18T06:48:47;25.40;;;17.83;;
10469;SDS011;5282;47.052;15.458;2022-12-18T06:51:17;22.13;;;16.70;;
10469;SDS011;5282;47.052;15.458;2022-12-18T06:53:44;20.70;;;15.13;;
10469;SDS011;5282;47.052;15.458;2022-12-18T06:56:12;23.27;;;14.93;;
10469;SDS011;5282;47.052;15.458;2022-12-18T06:58:39;17.10;;;13.97;;
10469;SDS011;5282;47.052;15.458;2022-12-18T07:01:07;21.13;;;14.60;;
10469;SDS011;5282;47.052;15.458;2022-12-18T07:03:36;18.13;;;13.57;;
10469;SDS011;5282;47.052;15.458;2022-12-18T07:06:05;20.87;;;14.37;;
10469;SDS011;5282;47.052;15.458;2022-12-18T07:08:32;21.80;;;14.90;;
10469;SDS011;5282;47.052;15.458;2022-12-18T07:11:02;17.27;;;13.47;;
10469;SDS011;5282;47.052;15.458;2022-12-18T07:13:29;19.13;;;14.47;;
10469;SDS011;5282;47.052;15.458;2022-12-18T07:16:02;17.00;;;13.67;;
10469;SDS011;5282;47.052;15.458;2022-12-18T07:18:30;25.23;;;17.43;;
10469;SDS011;5282;47.052;15.458;2022-12-18T07:20:57;20.03;;;14.13;;
10469;SDS011;5282;47.052;15.458;2022-12-18T07:23:25;17.07;;;12.17;;
10469;SDS011;5282;47.052;15.458;2022-12-18T07:25:52;15.83;;;13.33;;
10469;SDS011;5282;47.052;15.458;2022-12-18T07:28:19;17.80;;;13.63;;
10469;SDS011;5282;47.052;15.458;2022-12-18T07:30:47;18.60;;;13.37;;
10469;SDS011;5282;47.052;15.458;2022-12-18T07:33:13;14.90;;;11.40;;
10469;SDS011;5282;47.052;15.458;2022-12-18T07:35:40;15.83;;;10.33;;
10469;SDS011;5282;47.052;15.458;2022-12-18T07:38:08;11.23;;;9.47;;
10469;SDS011;5282;47.052;15.458;2022-12-18T07:40:36;8.93;;;8.10;;
10469;SDS011;5282;47.052;15.458;2022-12-18T07:43:03;9.00;;;8.10;;
10469;SDS011;5282;47.052;15.458;2022-12-18T07:45:30;9.30;;;7.53;;
10469;SDS011;5282;47.052;15.458;2022-12-18T07:47:58;9.03;;;8.13;;
10469;SDS011;5282;47.052;15.458;2022-12-18T07:50:27;9.13;;;8.07;;
10469;SDS011;5282;47.052;15.458;2022-12-18T07:52:54;9.30;;;8.37;;
10469;SDS011;5282;47.052;15.458;2022-12-18T07:55:21;8.33;;;7.63;;
10469;SDS011;5282;47.052;15.458;2022-12-18T07:57:50;12.27;;;8.53;;
10469;SDS011;5282;47.052;15.458;2022-12-18T08:00:17;9.87;;;8.37;;
10469;SDS011;5282;47.052;15.458;2022-12-18T08:02:44;8.70;;;7.80;;
10469;SDS011;5282;47.052;15.458;2022-12-18T08:05:11;8.83;;;7.70;;
10469;SDS011;5282;47.052;15.458;2022-12-18T08:07:38;8.97;;;8.03;;
10469;SDS011;5282;47.052;15.458;2022-12-18T08:10:07;8.07;;;7.27;;
10469;SDS011;5282;47.052;15.458;2022-12-18T08:12:34;7.93;;;7.20;;
10469;SDS011;5282;47.052;15.458;2022-12-18T08:15:03;9.20;;;8.40;;
10469;SDS011;5282;47.052;15.458;2022-12-18T08:17:30;8.80;;;7.87;;
10469;SDS011;5282;47.052;15.458;2022-12-18T08:19:57;8.73;;;7.83;;
10469;SDS011;5282;47.052;15.458;2022-12-18T08:22:24;9.00;;;8.17;;
10469;SDS011;5282;47.052;15.458;2022-12-18T08:24:51;8.97;;;8.13;;
10469;SDS011;5282;47.052;15.458;2022-12-18T08:27:18;8.80;;;7.60;;
10469;SDS011;5282;47.052;15.458;2022-12-18T08:29:45;9.30;;;8.40;;
10469;SDS011;5282;47.052;15.458;2022-12-18T08:32:16;8.70;;;7.90;;
10469;SDS011;5282;47.052;15.458;2022-12-18T08:34:42;8.77;;;8.03;;
10469;SDS011;5282;47.052;15.458;2022-12-18T08:37:09;9.30;;;8.10;;
10469;SDS011;5282;47.052;15.458;2022-12-18T08:39:36;8.67;;;7.80;;
10469;SDS011;5282;47.052;15.458;2022-12-18T08:42:03;11.70;;;10.50;;
10469;SDS011;5282;47.052;15.458;2022-12-18T08:44:47;10.73;;;9.53;;
10469;SDS011;5282;47.052;15.458;2022-12-18T08:47:13;8.83;;;7.97;;
10469;SDS011;5282;47.052;15.458;2022-12-18T08:49:42;9.87;;;8.73;;
10469;SDS011;5282;47.052;15.458;2022-12-18T08:52:08;9.20;;;8.30;;
10469;SDS011;5282;47.052;15.458;2022-12-18T08:54:36;9.00;;;8.10;;
10469;SDS011;5282;47.052;15.458;2022-12-18T08:57:03;9.17;;;8.37;;
10469;SDS011;5282;47.052;15.458;2022-12-18T08:59:30;9.17;;;8.27;;
10469;SDS011;5282;47.052;15.458;2022-12-18T09:01:57;9.50;;;8.60;;
10469;SDS011;5282;47.052;15.458;2022-12-18T09:04:25;8.87;;;7.97;;
10469;SDS011;5282;47.052;15.458;2022-12-18T09:06:52;10.20;;;9.20;;
10469;SDS011;5282;47.052;15.458;2022-12-18T09:09:19;9.33;;;8.43;;
10469;SDS011;5282;47.052;15.458;2022-12-18T09:11:48;9.53;;;8.57;;
10469;SDS011;5282;47.052;15.458;2022-12-18T09:14:15;10.17;;;8.93;;
10469;SDS011;5282;47.052;15.458;2022-12-18T09:16:41;8.90;;;8.10;;
10469;SDS011;5282;47.052;15.458;2022-12-18T09:19:08;10.80;;;8.87;;
10469;SDS011;5282;47.052;15.458;2022-12-18T09:21:37;9.67;;;8.67;;
10469;SDS011;5282;47.052;15.458;2022-12-18T09:24:05;10.17;;;8.87;;
10469;SDS011;5282;47.052;15.458;2022-12-18T09:26:32;8.77;;;8.07;;
10469;SDS011;5282;47.052;15.458;2022-12-18T09:28:59;9.00;;;8.10;;
10469;SDS011;5282;47.052;15.458;2022-12-18T09:31:26;10.47;;;9.47;;
10469;SDS011;5282;47.052;15.458;2022-12-18T09:33:54;9.23;;;8.40;;
10469;SDS011;5282;47.052;15.458;2022-12-18T09:36:21;11.20;;;9.50;;
10469;SDS011;5282;47.052;15.458;2022-12-18T09:38:49;11.03;;;10.03;;
10469;SDS011;5282;47.052;15.458;2022-12-18T09:41:27;10.83;;;9.33;;
10469;SDS011;5282;47.052;15.458;2022-12-18T09:44:05;11.27;;;9.30;;
10469;SDS011;5282;47.052;15.458;2022-12-18T09:46:43;10.27;;;9.27;;
10469;SDS011;5282;47.052;15.458;2022-12-18T09:49:14;10.13;;;9.23;;
10469;SDS011;5282;47.052;15.458;2022-12-18T09:51:45;13.30;;;9.47;;
10469;SDS011;5282;47.052;15.458;2022-12-18T09:54:18;10.83;;;9.73;;
10469;SDS011;5282;47.052;15.458;2022-12-18T09:56:49;11.97;;;10.43;;
10469;SDS011;5282;47.052;15.458;2022-12-18T09:59:18;11.70;;;10.43;;
10469;SDS011;5282;47.052;15.458;2022-12-18T10:01:49;12.53;;;11.23;;
10469;SDS011;5282;47.052;15.458;2022-12-18T10:04:16;14.23;;;12.23;;
10469;SDS011;5282;47.052;15.458;2022-12-18T10:06:45;18.27;;;14.20;;
10469;SDS011;5282;47.052;15.458;2022-12-18T10:09:23;19.50;;;15.20;;
10469;SDS011;5282;47.052;15.458;2022-12-18T10:11:57;19.20;;;14.57;;
10469;SDS011;5282;47.052;15.458;2022-12-18T10:14:33;20.83;;;14.47;;
10469;SDS011;5282;47.052;15.458;2022-12-18T10:17:09;16.07;;;13.67;;
10469;SDS011;5282;47.052;15.458;2022-12-18T10:19:47;16.93;;;13.33;;
10469;SDS011;5282;47.052;15.458;2022-12-18T10:22:22;17.30;;;14.60;;
10469;SDS011;5282;47.052;15.458;2022-12-18T10:24:59;16.40;;;13.93;;
10469;SDS011;5282;47.052;15.458;2022-12-18T10:27:31;20.53;;;15.40;;
10469;SDS011;5282;47.052;15.458;2022-12-18T10:29:58;20.57;;;15.83;;
10469;SDS011;5282;47.052;15.458;2022-12-18T10:32:28;17.43;;;14.97;;
10469;SDS011;5282;47.052;15.458;2022-12-18T10:34:57;17.70;;;14.23;;
10469;SDS011;5282;47.052;15.458;2022-12-18T10:37:27;19.73;;;15.63;;
10469;SDS011;5282;47.052;15.458;2022-12-18T10:40:12;19.77;;;14.43;;
10469;SDS011;5282;47.052;15.458;2022-12-18T10:42:41;20.97;;;15.23;;
10469;SDS011;5282;47.052;15.458;2022-12-18T10:45:10;20.23;;;15.33;;
10469;SDS011;5282;47.052;15.458;2022-12-18T10:47:41;23.70;;;15.73;;
10469;SDS011;5282;47.052;15.458;2022-12-18T10:50:18;22.20;;;16.40;;
10469;SDS011;5282;47.052;15.458;2022-12-18T10:52:52;24.67;;;16.77;;
10469;SDS011;5282;47.052;15.458;2022-12-18T10:55:22;23.23;;;16.03;;
10469;SDS011;5282;47.052;15.458;2022-12-18T10:57:53;24.00;;;16.93;;
10469;SDS011;5282;47.052;15.458;2022-12-18T11:00:21;22.87;;;16.77;;
10469;SDS011;5282;47.052;15.458;2022-12-18T11:02:50;22.07;;;16.23;;
10469;SDS011;5282;47.052;15.458;2022-12-18T11:05:25;27.63;;;17.67;;
10469;SDS011;5282;47.052;15.458;2022-12-18T11:07:54;24.93;;;16.00;;
10469;SDS011;5282;47.052;15.458;2022-12-18T11:10:25;25.70;;;16.27;;
10469;SDS011;5282;47.052;15.458;2022-12-18T11:12:56;21.53;;;15.73;;
10469;SDS011;5282;47.052;15.458;2022-12-18T11:15:39;24.50;;;18.13;;
10469;SDS011;5282;47.052;15.458;2022-12-18T11:18:14;24.50;;;18.00;;
10469;SDS011;5282;47.052;15.458;2022-12-18T11:20:43;24.77;;;17.40;;
10469;SDS011;5282;47.052;15.458;2022-12-18T11:23:20;27.17;;;19.03;;
10469;SDS011;5282;47.052;15.458;2022-12-18T11:25:57;27.10;;;18.80;;
10469;SDS011;5282;47.052;15.458;2022-12-18T11:28:36;28.83;;;19.10;;
10469;SDS011;5282;47.052;15.458;2022-12-18T11:31:14;29.57;;;19.87;;
10469;SDS011;5282;47.052;15.458;2022-12-18T11:33:46;28.43;;;18.73;;
10469;SDS011;5282;47.052;15.458;2022-12-18T11:36:20;29.47;;;18.90;;
10469;SDS011;5282;47.052;15.458;2022-12-18T11:38:49;27.33;;;18.87;;
10469;SDS011;5282;47.052;15.458;2022-12-18T11:41:23;31.77;;;20.43;;
10469;SDS011;5282;47.052;15.458;2022-12-18T11:44:13;29.57;;;18.93;;
10469;SDS011;5282;47.052;15.458;2022-12-18T11:46:49;31.50;;;20.17;;
10469;SDS011;5282;47.052;15.458;2022-12-18T11:49:20;34.20;;;20.10;;
10469;SDS011;5282;47.052;15.458;2022-12-18T11:51:53;31.87;;;19.93;;
10469;SDS011;5282;47.052;15.458;2022-12-18T11:54:25;33.63;;;19.70;;
10469;SDS011;5282;47.052;15.458;2022-12-18T11:56:55;31.17;;;20.77;;
10469;SDS011;5282;47.052;15.458;2022-12-18T11:59:28;40.83;;;20.13;;
10469;SDS011;5282;47.052;15.458;2022-12-18T12:02:04;30.33;;;19.57;;
10469;SDS011;5282;47.052;15.458;2022-12-18T12:04:46;30.57;;;20.27;;
10469;SDS011;5282;47.052;15.458;2022-12-18T12:07:29;34.20;;;21.20;;
10469;SDS011;5282;47.052;15.458;2022-12-18T12:10:07;30.27;;;20.57;;
10469;SDS011;5282;47.052;15.458;2022-12-18T12:12:52;29.57;;;20.73;;
10469;SDS011;5282;47.052;15.458;2022-12-18T12:15:29;29.80;;;20.17;;
10469;SDS011;5282;47.052;15.458;2022-12-18T12:18:06;33.50;;;20.17;;
10469;SDS011;5282;47.052;15.458;2022-12-18T12:20:42;29.33;;;20.13;;
10469;SDS011;5282;47.052;15.458;2022-12-18T12:23:20;33.07;;;19.40;;
10469;SDS011;5282;47.052;15.458;2022-12-18T12:25:56;33.53;;;20.23;;
10469;SDS011;5282;47.052;15.458;2022-12-18T12:28:40;32.67;;;21.03;;
10469;SDS011;5282;47.052;15.458;2022-12-18T12:31:19;32.03;;;20.57;;
10469;SDS011;5282;47.052;15.458;2022-12-18T12:33:56;34.67;;;21.03;;
10469;SDS011;5282;47.052;15.458;2022-12-18T12:36:30;33.77;;;21.00;;
10469;SDS011;5282;47.052;15.458;2022-12-18T12:39:07;29.40;;;19.70;;
10469;SDS011;5282;47.052;15.458;2022-12-18T12:41:38;30.07;;;19.10;;
10469;SDS011;5282;47.052;15.458;2022-12-18T12:44:25;32.13;;;19.97;;
10469;SDS011;5282;47.052;15.458;2022-12-18T12:46:56;30.90;;;20.27;;
10469;SDS011;5282;47.052;15.458;2022-12-18T12:49:29;31.53;;;18.93;;
10469;SDS011;5282;47.052;15.458;2022-12-18T12:52:00;38.20;;;20.80;;
10469;SDS011;5282;47.052;15.458;2022-12-18T12:54:31;36.80;;;19.77;;
10469;SDS011;5282;47.052;15.458;2022-12-18T12:57:00;32.50;;;20.30;;
10469;SDS011;5282;47.052;15.458;2022-12-18T12:59:35;29.67;;;19.73;;
10469;SDS011;5282;47.052;15.458;2022-12-18T13:02:10;35.07;;;19.77;;
10469;SDS011;5282;47.052;15.458;2022-12-18T13:04:46;34.10;;;20.17;;
10469;SDS011;5282;47.052;15.458;2022-12-18T13:07:20;35.20;;;19.90;;
10469;SDS011;5282;47.052;15.458;2022-12-18T13:10:19;32.80;;;19.87;;
10469;SDS011;5282;47.052;15.458;2022-12-18T13:12:51;34.83;;;20.20;;
10469;SDS011;5282;47.052;15.458;2022-12-18T13:15:23;32.80;;;19.53;;
10469;SDS011;5282;47.052;15.458;2022-12-18T13:18:11;32.50;;;20.67;;
10469;SDS011;5282;47.052;15.458;2022-12-18T13:20:41;39.00;;;20.47;;
10469;SDS011;5282;47.052;15.458;2022-12-18T13:28:58;37.73;;;21.20;;
10469;SDS011;5282;47.052;15.458;2022-12-18T13:34:44;37.40;;;20.13;;
10469;SDS011;5282;47.052;15.458;2022-12-18T13:43:24;37.47;;;20.70;;
10469;SDS011;5282;47.052;15.458;2022-12-18T13:46:18;37.70;;;20.90;;
10469;SDS011;5282;47.052;15.458;2022-12-18T13:48:52;32.37;;;20.07;;
10469;SDS011;5282;47.052;15.458;2022-12-18T13:51:22;39.00;;;22.57;;
10469;SDS011;5282;47.052;15.458;2022-12-18T13:53:50;36.67;;;22.20;;
10469;SDS011;5282;47.052;15.458;2022-12-18T13:56:22;36.73;;;21.97;;
10469;SDS011;5282;47.052;15.458;2022-12-18T13:59:03;34.97;;;20.47;;
10469;SDS011;5282;47.052;15.458;2022-12-18T14:01:41;35.00;;;21.43;;
10469;SDS011;5282;47.052;15.458;2022-12-18T14:04:10;38.63;;;21.37;;
10469;SDS011;5282;47.052;15.458;2022-12-18T14:06:39;36.20;;;20.33;;
10469;SDS011;5282;47.052;15.458;2022-12-18T14:09:10;38.17;;;21.53;;
10469;SDS011;5282;47.052;15.458;2022-12-18T14:11:46;35.50;;;21.83;;
10469;SDS011;5282;47.052;15.458;2022-12-18T14:14:14;33.03;;;20.53;;
10469;SDS011;5282;47.052;15.458;2022-12-18T14:16:43;35.53;;;20.73;;
10469;SDS011;5282;47.052;15.458;2022-12-18T14:19:13;32.73;;;20.70;;
10469;SDS011;5282;47.052;15.458;2022-12-18T14:21:45;38.17;;;21.13;;
10469;SDS011;5282;47.052;15.458;2022-12-18T14:24:14;36.90;;;21.47;;
10469;SDS011;5282;47.052;15.458;2022-12-18T14:26:42;39.47;;;22.33;;
10469;SDS011;5282;47.052;15.458;2022-12-18T14:32:05;38.77;;;21.57;;
10469;SDS011;5282;47.052;15.458;2022-12-18T14:34:38;37.53;;;20.73;;
10469;SDS011;5282;47.052;15.458;2022-12-18T14:37:05;35.30;;;20.70;;
10469;SDS011;5282;47.052;15.458;2022-12-18T14:39:36;37.33;;;21.20;;
10469;SDS011;5282;47.052;15.458;2022-12-18T14:42:03;36.13;;;20.87;;
10469;SDS011;5282;47.052;15.458;2022-12-18T14:44:31;37.37;;;21.37;;
10469;SDS011;5282;47.052;15.458;2022-12-18T14:46:59;35.07;;;20.50;;
10469;SDS011;5282;47.052;15.458;2022-12-18T14:49:29;37.23;;;22.47;;
10469;SDS011;5282;47.052;15.458;2022-12-18T14:52:00;41.17;;;23.00;;
10469;SDS011;5282;47.052;15.458;2022-12-18T14:54:29;37.47;;;21.73;;
10469;SDS011;5282;47.052;15.458;2022-12-18T14:56:58;35.43;;;21.17;;
10469;SDS011;5282;47.052;15.458;2022-12-18T14:59:27;35.73;;;20.97;;
10469;SDS011;5282;47.052;15.458;2022-12-18T15:01:57;34.27;;;20.77;;
10469;SDS011;5282;47.052;15.458;2022-12-18T15:04:30;39.03;;;21.93;;